sensor_id;sensor_type;location;lat;lon;timestamp;temperature;humidity
326;DHT22;150;52.352;14.058;2022-07-01T00:00:56;23.50;50.40
326;DHT22;150;52.352;14.058;2022-07-01T00:03:23;23.50;50.20
326;DHT22;150;52.352;14.058;2022-07-01T00:05:49;23.50;50.10
326;DHT22;150;52.352;14.058;2022-07-01T00:08:17;23.50;50.30
326;DHT22;150;52.352;14.058;2022-07-01T00:10:46;23.40;50.40
326;DHT22;150;52.352;14.058;2022-07-01T00:13:12;23.40;50.40
326;DHT22;150;52.352;14.058;2022-07-01T00:15:39;23.40;50.60
326;DHT22;150;52.352;14.058;2022-07-01T00:18:06;23.40;50.90
326;DHT22;150;52.352;14.058;2022-07-01T00:20:39;23.30;50.70
326;DHT22;150;52.352;14.058;2022-07-01T00:23:06;23.40;50.80
326;DHT22;150;52.352;14.058;2022-07-01T00:25:34;23.30;50.90
326;DHT22;150;52.352;14.058;2022-07-01T00:28:01;23.30;51.20
326;DHT22;150;52.352;14.058;2022-07-01T00:30:27;23.30;51.30
326;DHT22;150;52.352;14.058;2022-07-01T00:32:56;23.30;51.30
326;DHT22;150;52.352;14.058;2022-07-01T00:35:23;23.30;51.50
326;DHT22;150;52.352;14.058;2022-07-01T00:37:50;23.20;51.30
326;DHT22;150;52.352;14.058;2022-07-01T00:40:16;23.20;51.20
326;DHT22;150;52.352;14.058;2022-07-01T00:42:44;23.20;51.10
326;DHT22;150;52.352;14.058;2022-07-01T00:45:12;23.20;50.90
326;DHT22;150;52.352;14.058;2022-07-01T00:47:40;23.20;50.90
326;DHT22;150;52.352;14.058;2022-07-01T00:50:09;23.20;51.20
326;DHT22;150;52.352;14.058;2022-07-01T00:52:36;23.20;51.30
326;DHT22;150;52.352;14.058;2022-07-01T00:55:04;23.10;51.90
326;DHT22;150;52.352;14.058;2022-07-01T00:57:32;23.10;52.30
326;DHT22;150;52.352;14.058;2022-07-01T01:00:01;23.10;52.00
326;DHT22;150;52.352;14.058;2022-07-01T01:02:31;23.10;52.20
326;DHT22;150;52.352;14.058;2022-07-01T01:04:57;23.10;52.30
326;DHT22;150;52.352;14.058;2022-07-01T01:07:24;23.10;52.60
326;DHT22;150;52.352;14.058;2022-07-01T01:09:51;23.10;52.80
326;DHT22;150;52.352;14.058;2022-07-01T01:12:18;23.00;52.70
326;DHT22;150;52.352;14.058;2022-07-01T01:14:45;23.10;52.80
326;DHT22;150;52.352;14.058;2022-07-01T01:17:13;23.10;52.70
326;DHT22;150;52.352;14.058;2022-07-01T01:19:41;23.00;52.70
326;DHT22;150;52.352;14.058;2022-07-01T01:22:10;23.10;52.70
326;DHT22;150;52.352;14.058;2022-07-01T01:24:37;23.00;52.50
326;DHT22;150;52.352;14.058;2022-07-01T01:27:04;23.00;52.70
326;DHT22;150;52.352;14.058;2022-07-01T01:29:31;23.00;52.80
326;DHT22;150;52.352;14.058;2022-07-01T01:31:57;23.00;52.80
326;DHT22;150;52.352;14.058;2022-07-01T01:34:24;23.00;52.60
326;DHT22;150;52.352;14.058;2022-07-01T01:36:51;23.00;52.50
326;DHT22;150;52.352;14.058;2022-07-01T01:39:20;23.00;52.60
326;DHT22;150;52.352;14.058;2022-07-01T01:41:47;23.00;52.50
326;DHT22;150;52.352;14.058;2022-07-01T01:44:13;22.90;52.40
326;DHT22;150;52.352;14.058;2022-07-01T01:46:40;22.90;52.80
326;DHT22;150;52.352;14.058;2022-07-01T01:49:07;22.90;52.80
326;DHT22;150;52.352;14.058;2022-07-01T01:51:34;22.90;52.70
326;DHT22;150;52.352;14.058;2022-07-01T01:54:01;22.90;52.70
326;DHT22;150;52.352;14.058;2022-07-01T01:56:29;22.90;52.90
326;DHT22;150;52.352;14.058;2022-07-01T01:58:55;22.80;52.70
326;DHT22;150;52.352;14.058;2022-07-01T02:01:22;22.80;53.20
326;DHT22;150;52.352;14.058;2022-07-01T02:03:52;22.70;53.40
326;DHT22;150;52.352;14.058;2022-07-01T02:06:20;22.70;53.60
326;DHT22;150;52.352;14.058;2022-07-01T02:08:47;22.70;53.80
326;DHT22;150;52.352;14.058;2022-07-01T02:11:14;22.70;53.70
326;DHT22;150;52.352;14.058;2022-07-01T02:13:44;22.60;53.70
326;DHT22;150;52.352;14.058;2022-07-01T02:16:11;22.60;54.20
326;DHT22;150;52.352;14.058;2022-07-01T02:18:40;22.50;54.10
326;DHT22;150;52.352;14.058;2022-07-01T02:21:10;22.50;54.50
326;DHT22;150;52.352;14.058;2022-07-01T02:23:36;22.50;54.10
326;DHT22;150;52.352;14.058;2022-07-01T02:26:11;22.40;54.30
326;DHT22;150;52.352;14.058;2022-07-01T02:28:45;22.40;54.80
326;DHT22;150;52.352;14.058;2022-07-01T02:31:13;22.40;54.90
326;DHT22;150;52.352;14.058;2022-07-01T02:33:45;22.40;54.80
326;DHT22;150;52.352;14.058;2022-07-01T02:36:12;22.40;55.10
326;DHT22;150;52.352;14.058;2022-07-01T02:38:38;22.40;55.40
326;DHT22;150;52.352;14.058;2022-07-01T02:41:07;22.40;55.30
326;DHT22;150;52.352;14.058;2022-07-01T02:43:35;22.40;55.10
326;DHT22;150;52.352;14.058;2022-07-01T02:46:02;22.40;55.10
326;DHT22;150;52.352;14.058;2022-07-01T02:48:31;22.40;55.00
326;DHT22;150;52.352;14.058;2022-07-01T02:50:57;22.30;55.10
326;DHT22;150;52.352;14.058;2022-07-01T02:53:24;22.40;55.30
326;DHT22;150;52.352;14.058;2022-07-01T02:55:51;22.40;55.30
326;DHT22;150;52.352;14.058;2022-07-01T02:58:17;22.40;55.40
326;DHT22;150;52.352;14.058;2022-07-01T03:00:44;22.40;55.20
326;DHT22;150;52.352;14.058;2022-07-01T03:03:11;22.40;55.20
326;DHT22;150;52.352;14.058;2022-07-01T03:05:43;22.40;55.10
326;DHT22;150;52.352;14.058;2022-07-01T03:08:09;22.40;55.60
326;DHT22;150;52.352;14.058;2022-07-01T03:10:36;22.40;54.50
326;DHT22;150;52.352;14.058;2022-07-01T03:13:07;22.40;54.40
326;DHT22;150;52.352;14.058;2022-07-01T03:15:33;22.40;54.70
326;DHT22;150;52.352;14.058;2022-07-01T03:18:01;22.40;54.40
326;DHT22;150;52.352;14.058;2022-07-01T03:20:28;22.40;54.90
326;DHT22;150;52.352;14.058;2022-07-01T03:22:56;22.30;54.90
326;DHT22;150;52.352;14.058;2022-07-01T03:25:23;22.40;55.20
326;DHT22;150;52.352;14.058;2022-07-01T03:27:49;22.40;55.50
326;DHT22;150;52.352;14.058;2022-07-01T03:30:16;22.40;55.50
326;DHT22;150;52.352;14.058;2022-07-01T03:32:44;22.50;55.20
326;DHT22;150;52.352;14.058;2022-07-01T03:35:11;22.50;54.90
326;DHT22;150;52.352;14.058;2022-07-01T03:37:57;22.50;54.20
326;DHT22;150;52.352;14.058;2022-07-01T03:40:24;22.60;54.20
326;DHT22;150;52.352;14.058;2022-07-01T03:42:53;22.60;54.20
326;DHT22;150;52.352;14.058;2022-07-01T03:45:19;22.70;53.90
326;DHT22;150;52.352;14.058;2022-07-01T03:47:46;22.70;53.40
326;DHT22;150;52.352;14.058;2022-07-01T03:50:14;22.80;53.20
326;DHT22;150;52.352;14.058;2022-07-01T03:52:41;22.80;53.10
326;DHT22;150;52.352;14.058;2022-07-01T03:55:14;22.80;52.90
326;DHT22;150;52.352;14.058;2022-07-01T03:57:42;22.90;52.90
326;DHT22;150;52.352;14.058;2022-07-01T04:00:09;22.90;52.90
326;DHT22;150;52.352;14.058;2022-07-01T04:02:39;22.90;52.70
326;DHT22;150;52.352;14.058;2022-07-01T04:05:06;23.00;52.50
326;DHT22;150;52.352;14.058;2022-07-01T04:07:32;23.00;52.40
326;DHT22;150;52.352;14.058;2022-07-01T04:10:05;23.10;52.50
326;DHT22;150;52.352;14.058;2022-07-01T04:12:33;23.10;52.40
326;DHT22;150;52.352;14.058;2022-07-01T04:15:06;23.20;52.40
326;DHT22;150;52.352;14.058;2022-07-01T04:17:32;23.30;52.50
326;DHT22;150;52.352;14.058;2022-07-01T04:19:59;23.30;52.60
326;DHT22;150;52.352;14.058;2022-07-01T04:22:29;23.30;52.70
326;DHT22;150;52.352;14.058;2022-07-01T04:25:10;23.40;52.70
326;DHT22;150;52.352;14.058;2022-07-01T04:27:38;23.50;52.40
326;DHT22;150;52.352;14.058;2022-07-01T04:30:08;23.50;53.10
326;DHT22;150;52.352;14.058;2022-07-01T04:32:34;23.70;52.50
326;DHT22;150;52.352;14.058;2022-07-01T04:35:01;23.80;51.10
326;DHT22;150;52.352;14.058;2022-07-01T04:37:28;24.00;50.90
326;DHT22;150;52.352;14.058;2022-07-01T04:39:57;24.20;50.90
326;DHT22;150;52.352;14.058;2022-07-01T04:42:23;24.40;50.10
326;DHT22;150;52.352;14.058;2022-07-01T04:44:55;24.50;49.70
326;DHT22;150;52.352;14.058;2022-07-01T04:47:21;24.70;49.40
326;DHT22;150;52.352;14.058;2022-07-01T04:49:57;24.80;48.50
326;DHT22;150;52.352;14.058;2022-07-01T04:52:24;25.00;48.50
326;DHT22;150;52.352;14.058;2022-07-01T04:54:50;25.10;47.10
326;DHT22;150;52.352;14.058;2022-07-01T04:57:21;25.00;46.90
326;DHT22;150;52.352;14.058;2022-07-01T04:59:48;25.00;47.10
326;DHT22;150;52.352;14.058;2022-07-01T05:02:20;24.90;48.20
326;DHT22;150;52.352;14.058;2022-07-01T05:04:46;25.00;48.60
326;DHT22;150;52.352;14.058;2022-07-01T05:07:13;25.00;48.80
326;DHT22;150;52.352;14.058;2022-07-01T05:10:08;25.10;48.90
326;DHT22;150;52.352;14.058;2022-07-01T05:12:34;25.10;48.20
326;DHT22;150;52.352;14.058;2022-07-01T05:15:01;25.30;48.00
326;DHT22;150;52.352;14.058;2022-07-01T05:17:28;25.20;47.70
326;DHT22;150;52.352;14.058;2022-07-01T05:20:10;25.20;48.10
326;DHT22;150;52.352;14.058;2022-07-01T05:22:55;25.20;48.60
326;DHT22;150;52.352;14.058;2022-07-01T05:25:23;25.00;48.90
326;DHT22;150;52.352;14.058;2022-07-01T05:27:49;25.10;49.70
326;DHT22;150;52.352;14.058;2022-07-01T05:30:16;25.10;49.70
326;DHT22;150;52.352;14.058;2022-07-01T05:32:42;25.20;49.90
326;DHT22;150;52.352;14.058;2022-07-01T05:35:09;25.40;49.90
326;DHT22;150;52.352;14.058;2022-07-01T05:37:36;25.60;48.80
326;DHT22;150;52.352;14.058;2022-07-01T05:40:05;25.80;48.70
326;DHT22;150;52.352;14.058;2022-07-01T05:42:34;26.00;48.30
326;DHT22;150;52.352;14.058;2022-07-01T05:45:00;26.10;46.50
326;DHT22;150;52.352;14.058;2022-07-01T05:47:27;26.20;46.50
326;DHT22;150;52.352;14.058;2022-07-01T05:49:53;26.30;45.60
326;DHT22;150;52.352;14.058;2022-07-01T05:52:20;26.30;46.10
326;DHT22;150;52.352;14.058;2022-07-01T05:54:47;26.40;45.70
326;DHT22;150;52.352;14.058;2022-07-01T05:57:13;26.40;45.80
326;DHT22;150;52.352;14.058;2022-07-01T05:59:41;26.30;45.20
326;DHT22;150;52.352;14.058;2022-07-01T06:02:08;26.40;45.50
326;DHT22;150;52.352;14.058;2022-07-01T06:04:34;26.50;45.10
326;DHT22;150;52.352;14.058;2022-07-01T06:07:01;26.50;44.10
326;DHT22;150;52.352;14.058;2022-07-01T06:09:27;26.60;44.40
326;DHT22;150;52.352;14.058;2022-07-01T06:11:54;26.60;43.90
326;DHT22;150;52.352;14.058;2022-07-01T06:14:21;26.70;44.00
326;DHT22;150;52.352;14.058;2022-07-01T06:16:49;26.90;44.00
326;DHT22;150;52.352;14.058;2022-07-01T06:19:15;27.10;42.90
326;DHT22;150;52.352;14.058;2022-07-01T06:21:42;27.20;42.00
326;DHT22;150;52.352;14.058;2022-07-01T06:24:08;27.30;42.70
326;DHT22;150;52.352;14.058;2022-07-01T06:26:35;27.50;42.20
326;DHT22;150;52.352;14.058;2022-07-01T06:29:02;27.50;40.80
326;DHT22;150;52.352;14.058;2022-07-01T06:31:28;27.50;40.00
326;DHT22;150;52.352;14.058;2022-07-01T06:33:56;27.70;40.90
326;DHT22;150;52.352;14.058;2022-07-01T06:36:23;27.70;39.80
326;DHT22;150;52.352;14.058;2022-07-01T06:38:49;27.80;39.30
326;DHT22;150;52.352;14.058;2022-07-01T06:41:16;27.90;39.80
326;DHT22;150;52.352;14.058;2022-07-01T06:43:55;28.10;39.40
326;DHT22;150;52.352;14.058;2022-07-01T06:46:22;28.20;37.90
326;DHT22;150;52.352;14.058;2022-07-01T06:48:49;28.30;38.20
326;DHT22;150;52.352;14.058;2022-07-01T06:51:18;28.50;37.10
326;DHT22;150;52.352;14.058;2022-07-01T06:53:45;28.50;37.10
326;DHT22;150;52.352;14.058;2022-07-01T06:56:12;28.60;37.20
326;DHT22;150;52.352;14.058;2022-07-01T06:58:39;28.60;36.80
326;DHT22;150;52.352;14.058;2022-07-01T07:01:05;28.70;37.20
326;DHT22;150;52.352;14.058;2022-07-01T07:03:32;28.70;35.00
326;DHT22;150;52.352;14.058;2022-07-01T07:05:59;28.80;35.50
326;DHT22;150;52.352;14.058;2022-07-01T07:08:28;28.90;35.10
326;DHT22;150;52.352;14.058;2022-07-01T07:10:55;28.90;34.40
326;DHT22;150;52.352;14.058;2022-07-01T07:13:25;28.90;34.60
326;DHT22;150;52.352;14.058;2022-07-01T07:15:52;29.10;34.70
326;DHT22;150;52.352;14.058;2022-07-01T07:18:19;29.10;32.90
326;DHT22;150;52.352;14.058;2022-07-01T07:20:46;29.10;31.90
326;DHT22;150;52.352;14.058;2022-07-01T07:23:13;29.10;32.00
326;DHT22;150;52.352;14.058;2022-07-01T07:25:42;29.10;32.70
326;DHT22;150;52.352;14.058;2022-07-01T07:28:08;29.10;31.20
326;DHT22;150;52.352;14.058;2022-07-01T07:30:35;29.30;32.30
326;DHT22;150;52.352;14.058;2022-07-01T07:33:01;29.40;31.30
326;DHT22;150;52.352;14.058;2022-07-01T07:35:28;29.60;31.20
326;DHT22;150;52.352;14.058;2022-07-01T07:37:55;29.70;29.80
326;DHT22;150;52.352;14.058;2022-07-01T07:40:22;29.90;29.60
326;DHT22;150;52.352;14.058;2022-07-01T07:42:51;29.90;29.30
326;DHT22;150;52.352;14.058;2022-07-01T07:45:17;30.10;29.00
326;DHT22;150;52.352;14.058;2022-07-01T07:47:46;30.20;28.40
326;DHT22;150;52.352;14.058;2022-07-01T07:50:14;30.30;27.70
326;DHT22;150;52.352;14.058;2022-07-01T07:52:42;30.40;26.60
326;DHT22;150;52.352;14.058;2022-07-01T07:55:09;30.80;28.10
326;DHT22;150;52.352;14.058;2022-07-01T07:57:36;31.00;26.90
326;DHT22;150;52.352;14.058;2022-07-01T08:00:17;31.10;26.00
326;DHT22;150;52.352;14.058;2022-07-01T08:02:44;31.30;24.60
326;DHT22;150;52.352;14.058;2022-07-01T08:05:11;31.40;24.30
326;DHT22;150;52.352;14.058;2022-07-01T08:07:39;31.50;24.00
326;DHT22;150;52.352;14.058;2022-07-01T08:10:09;31.30;23.80
326;DHT22;150;52.352;14.058;2022-07-01T08:12:36;31.20;23.40
326;DHT22;150;52.352;14.058;2022-07-01T08:15:06;31.20;23.70
326;DHT22;150;52.352;14.058;2022-07-01T08:17:33;31.20;24.40
326;DHT22;150;52.352;14.058;2022-07-01T08:20:00;31.20;24.40
326;DHT22;150;52.352;14.058;2022-07-01T08:22:27;31.20;24.10
326;DHT22;150;52.352;14.058;2022-07-01T08:24:54;31.30;25.50
326;DHT22;150;52.352;14.058;2022-07-01T08:27:20;31.60;25.40
326;DHT22;150;52.352;14.058;2022-07-01T08:29:47;31.50;24.60
326;DHT22;150;52.352;14.058;2022-07-01T08:32:15;31.50;24.60
326;DHT22;150;52.352;14.058;2022-07-01T08:34:43;31.50;24.80
326;DHT22;150;52.352;14.058;2022-07-01T08:37:10;31.60;24.60
326;DHT22;150;52.352;14.058;2022-07-01T08:39:36;31.70;25.70
326;DHT22;150;52.352;14.058;2022-07-01T08:42:04;31.90;24.30
326;DHT22;150;52.352;14.058;2022-07-01T08:44:33;32.00;24.00
326;DHT22;150;52.352;14.058;2022-07-01T08:47:02;32.10;23.70
326;DHT22;150;52.352;14.058;2022-07-01T08:49:30;32.00;23.70
326;DHT22;150;52.352;14.058;2022-07-01T08:51:57;32.00;24.80
326;DHT22;150;52.352;14.058;2022-07-01T08:54:24;32.00;24.20
326;DHT22;150;52.352;14.058;2022-07-01T08:56:51;31.90;24.70
326;DHT22;150;52.352;14.058;2022-07-01T08:59:22;31.70;24.80
326;DHT22;150;52.352;14.058;2022-07-01T09:01:55;31.70;25.10
326;DHT22;150;52.352;14.058;2022-07-01T09:04:22;31.90;25.40
326;DHT22;150;52.352;14.058;2022-07-01T09:06:51;32.00;24.80
326;DHT22;150;52.352;14.058;2022-07-01T09:09:19;32.10;24.70
326;DHT22;150;52.352;14.058;2022-07-01T09:11:48;32.20;23.70
326;DHT22;150;52.352;14.058;2022-07-01T09:14:19;32.40;23.50
326;DHT22;150;52.352;14.058;2022-07-01T09:16:47;32.70;23.50
326;DHT22;150;52.352;14.058;2022-07-01T09:19:16;32.60;22.80
326;DHT22;150;52.352;14.058;2022-07-01T09:21:47;32.40;22.90
326;DHT22;150;52.352;14.058;2022-07-01T09:24:27;32.40;23.70
326;DHT22;150;52.352;14.058;2022-07-01T09:26:55;32.20;23.90
326;DHT22;150;52.352;14.058;2022-07-01T09:29:30;32.00;23.90
326;DHT22;150;52.352;14.058;2022-07-01T09:32:01;31.80;24.80
326;DHT22;150;52.352;14.058;2022-07-01T09:34:32;31.70;24.90
326;DHT22;150;52.352;14.058;2022-07-01T09:37:00;31.70;24.90
326;DHT22;150;52.352;14.058;2022-07-01T09:39:28;31.70;24.10
326;DHT22;150;52.352;14.058;2022-07-01T09:41:54;31.80;24.00
326;DHT22;150;52.352;14.058;2022-07-01T09:44:21;31.90;24.30
326;DHT22;150;52.352;14.058;2022-07-01T09:46:52;32.10;24.50
326;DHT22;150;52.352;14.058;2022-07-01T09:49:19;32.00;23.20
326;DHT22;150;52.352;14.058;2022-07-01T09:51:46;32.00;24.40
326;DHT22;150;52.352;14.058;2022-07-01T09:54:14;32.20;24.30
326;DHT22;150;52.352;14.058;2022-07-01T09:56:42;32.30;24.60
326;DHT22;150;52.352;14.058;2022-07-01T09:59:11;32.10;25.00
326;DHT22;150;52.352;14.058;2022-07-01T10:01:39;32.10;24.90
326;DHT22;150;52.352;14.058;2022-07-01T10:04:07;32.10;25.10
326;DHT22;150;52.352;14.058;2022-07-01T10:06:58;32.00;25.30
326;DHT22;150;52.352;14.058;2022-07-01T10:09:55;32.00;24.60
326;DHT22;150;52.352;14.058;2022-07-01T10:12:33;32.10;24.60
326;DHT22;150;52.352;14.058;2022-07-01T10:15:01;32.10;24.00
326;DHT22;150;52.352;14.058;2022-07-01T10:17:29;32.10;24.10
326;DHT22;150;52.352;14.058;2022-07-01T10:19:57;32.00;24.50
326;DHT22;150;52.352;14.058;2022-07-01T10:22:26;32.00;24.10
326;DHT22;150;52.352;14.058;2022-07-01T10:24:53;31.90;24.10
326;DHT22;150;52.352;14.058;2022-07-01T10:27:23;31.30;22.30
326;DHT22;150;52.352;14.058;2022-07-01T10:30:11;30.60;22.50
326;DHT22;150;52.352;14.058;2022-07-01T10:32:42;29.70;24.20
326;DHT22;150;52.352;14.058;2022-07-01T10:35:12;29.20;25.10
326;DHT22;150;52.352;14.058;2022-07-01T10:37:56;28.80;25.60
326;DHT22;150;52.352;14.058;2022-07-01T10:40:41;28.30;26.70
326;DHT22;150;52.352;14.058;2022-07-01T10:43:10;28.00;26.50
326;DHT22;150;52.352;14.058;2022-07-01T10:45:45;27.90;27.30
326;DHT22;150;52.352;14.058;2022-07-01T10:48:19;27.60;27.50
326;DHT22;150;52.352;14.058;2022-07-01T10:50:47;27.50;27.60
326;DHT22;150;52.352;14.058;2022-07-01T10:53:14;27.30;28.30
326;DHT22;150;52.352;14.058;2022-07-01T10:55:45;27.20;28.30
326;DHT22;150;52.352;14.058;2022-07-01T10:58:12;27.10;27.40
326;DHT22;150;52.352;14.058;2022-07-01T11:00:41;27.00;28.10
326;DHT22;150;52.352;14.058;2022-07-01T11:03:12;26.80;27.90
326;DHT22;150;52.352;14.058;2022-07-01T11:05:41;26.50;28.40
326;DHT22;150;52.352;14.058;2022-07-01T11:08:09;26.40;29.50
326;DHT22;150;52.352;14.058;2022-07-01T11:10:38;26.60;28.90
326;DHT22;150;52.352;14.058;2022-07-01T11:13:04;26.60;28.90
326;DHT22;150;52.352;14.058;2022-07-01T11:15:31;26.70;28.20
326;DHT22;150;52.352;14.058;2022-07-01T11:17:59;26.50;28.30
326;DHT22;150;52.352;14.058;2022-07-01T11:20:30;26.50;28.30
326;DHT22;150;52.352;14.058;2022-07-01T11:22:57;26.40;28.00
326;DHT22;150;52.352;14.058;2022-07-01T11:25:24;26.30;28.40
326;DHT22;150;52.352;14.058;2022-07-01T11:27:52;26.20;28.70
326;DHT22;150;52.352;14.058;2022-07-01T11:30:21;26.10;29.40
326;DHT22;150;52.352;14.058;2022-07-01T11:32:49;26.20;28.40
326;DHT22;150;52.352;14.058;2022-07-01T11:35:18;26.20;28.50
326;DHT22;150;52.352;14.058;2022-07-01T11:38:13;26.30;29.50
326;DHT22;150;52.352;14.058;2022-07-01T11:40:57;26.30;28.20
326;DHT22;150;52.352;14.058;2022-07-01T11:43:26;26.30;29.10
326;DHT22;150;52.352;14.058;2022-07-01T11:45:53;26.40;28.30
326;DHT22;150;52.352;14.058;2022-07-01T11:48:31;26.40;28.20
326;DHT22;150;52.352;14.058;2022-07-01T11:50:59;26.50;28.30
326;DHT22;150;52.352;14.058;2022-07-01T11:53:28;26.50;28.40
326;DHT22;150;52.352;14.058;2022-07-01T11:55:54;26.60;28.00
326;DHT22;150;52.352;14.058;2022-07-01T11:58:21;26.40;27.90
326;DHT22;150;52.352;14.058;2022-07-01T12:00:48;26.00;28.10
326;DHT22;150;52.352;14.058;2022-07-01T12:03:29;25.90;28.50
326;DHT22;150;52.352;14.058;2022-07-01T12:05:56;25.80;29.10
326;DHT22;150;52.352;14.058;2022-07-01T12:08:23;25.50;29.20
326;DHT22;150;52.352;14.058;2022-07-01T12:10:51;25.30;29.60
326;DHT22;150;52.352;14.058;2022-07-01T12:13:21;25.20;29.80
326;DHT22;150;52.352;14.058;2022-07-01T12:15:48;25.20;30.80
326;DHT22;150;52.352;14.058;2022-07-01T12:18:15;25.60;31.70
326;DHT22;150;52.352;14.058;2022-07-01T12:20:48;25.80;30.50
326;DHT22;150;52.352;14.058;2022-07-01T12:23:14;26.30;29.50
326;DHT22;150;52.352;14.058;2022-07-01T12:25:46;26.50;29.70
326;DHT22;150;52.352;14.058;2022-07-01T12:28:26;26.70;28.20
326;DHT22;150;52.352;14.058;2022-07-01T12:30:59;26.70;27.00
326;DHT22;150;52.352;14.058;2022-07-01T12:33:26;26.60;27.50
326;DHT22;150;52.352;14.058;2022-07-01T12:35:53;26.50;27.00
326;DHT22;150;52.352;14.058;2022-07-01T12:38:20;26.30;27.00
326;DHT22;150;52.352;14.058;2022-07-01T12:40:47;26.20;27.40
326;DHT22;150;52.352;14.058;2022-07-01T12:43:26;26.10;27.40
326;DHT22;150;52.352;14.058;2022-07-01T12:45:57;26.10;27.40
326;DHT22;150;52.352;14.058;2022-07-01T12:48:25;25.90;27.80
326;DHT22;150;52.352;14.058;2022-07-01T12:50:53;25.90;27.50
326;DHT22;150;52.352;14.058;2022-07-01T12:53:21;26.00;28.20
326;DHT22;150;52.352;14.058;2022-07-01T12:55:50;25.90;28.50
326;DHT22;150;52.352;14.058;2022-07-01T12:58:19;26.00;28.60
326;DHT22;150;52.352;14.058;2022-07-01T13:00:48;26.10;28.30
326;DHT22;150;52.352;14.058;2022-07-01T13:03:19;26.30;28.00
326;DHT22;150;52.352;14.058;2022-07-01T13:05:46;26.40;28.00
326;DHT22;150;52.352;14.058;2022-07-01T13:08:13;26.40;28.00
326;DHT22;150;52.352;14.058;2022-07-01T13:10:40;26.50;28.20
326;DHT22;150;52.352;14.058;2022-07-01T13:13:07;26.70;28.50
326;DHT22;150;52.352;14.058;2022-07-01T13:15:34;26.60;28.10
326;DHT22;150;52.352;14.058;2022-07-01T13:18:03;26.70;28.30
326;DHT22;150;52.352;14.058;2022-07-01T13:20:30;26.90;28.30
326;DHT22;150;52.352;14.058;2022-07-01T13:22:57;26.90;27.90
326;DHT22;150;52.352;14.058;2022-07-01T13:25:25;26.80;26.60
326;DHT22;150;52.352;14.058;2022-07-01T13:27:51;26.70;27.30
326;DHT22;150;52.352;14.058;2022-07-01T13:30:18;26.50;27.90
326;DHT22;150;52.352;14.058;2022-07-01T13:32:45;26.50;27.50
326;DHT22;150;52.352;14.058;2022-07-01T13:35:14;26.20;27.70
326;DHT22;150;52.352;14.058;2022-07-01T13:37:41;25.60;28.60
326;DHT22;150;52.352;14.058;2022-07-01T13:40:09;25.50;29.00
326;DHT22;150;52.352;14.058;2022-07-01T13:42:36;25.30;29.10
326;DHT22;150;52.352;14.058;2022-07-01T13:45:03;25.40;29.80
326;DHT22;150;52.352;14.058;2022-07-01T13:47:30;25.50;29.10
326;DHT22;150;52.352;14.058;2022-07-01T13:49:59;25.20;29.40
326;DHT22;150;52.352;14.058;2022-07-01T13:52:27;25.10;29.70
326;DHT22;150;52.352;14.058;2022-07-01T13:54:54;25.00;29.90
326;DHT22;150;52.352;14.058;2022-07-01T13:57:22;24.90;30.00
326;DHT22;150;52.352;14.058;2022-07-01T13:59:48;24.80;30.60
326;DHT22;150;52.352;14.058;2022-07-01T14:02:15;24.50;30.60
326;DHT22;150;52.352;14.058;2022-07-01T14:04:44;24.30;31.70
326;DHT22;150;52.352;14.058;2022-07-01T14:07:10;24.20;32.30
326;DHT22;150;52.352;14.058;2022-07-01T14:09:39;24.10;32.20
326;DHT22;150;52.352;14.058;2022-07-01T14:12:07;23.80;32.80
326;DHT22;150;52.352;14.058;2022-07-01T14:14:33;23.60;33.70
326;DHT22;150;52.352;14.058;2022-07-01T14:17:00;23.50;33.50
326;DHT22;150;52.352;14.058;2022-07-01T14:19:27;23.40;34.00
326;DHT22;150;52.352;14.058;2022-07-01T14:21:53;23.50;33.50
326;DHT22;150;52.352;14.058;2022-07-01T14:24:20;23.30;33.50
326;DHT22;150;52.352;14.058;2022-07-01T14:26:48;23.10;34.70
326;DHT22;150;52.352;14.058;2022-07-01T14:29:15;22.80;35.50
326;DHT22;150;52.352;14.058;2022-07-01T14:31:41;22.80;35.70
326;DHT22;150;52.352;14.058;2022-07-01T14:34:08;22.90;35.70
326;DHT22;150;52.352;14.058;2022-07-01T14:36:35;22.70;35.50
326;DHT22;150;52.352;14.058;2022-07-01T14:39:01;22.60;36.00
326;DHT22;150;52.352;14.058;2022-07-01T14:41:28;22.60;35.90
326;DHT22;150;52.352;14.058;2022-07-01T14:43:56;22.40;36.40
326;DHT22;150;52.352;14.058;2022-07-01T14:46:22;22.20;37.60
326;DHT22;150;52.352;14.058;2022-07-01T14:48:49;22.20;38.60
326;DHT22;150;52.352;14.058;2022-07-01T14:51:16;22.20;37.60
326;DHT22;150;52.352;14.058;2022-07-01T14:53:42;22.20;38.10
326;DHT22;150;52.352;14.058;2022-07-01T14:56:09;22.30;38.50
326;DHT22;150;52.352;14.058;2022-07-01T14:58:36;22.20;37.70
326;DHT22;150;52.352;14.058;2022-07-01T15:01:04;22.10;37.80
326;DHT22;150;52.352;14.058;2022-07-01T15:03:30;22.00;38.00
326;DHT22;150;52.352;14.058;2022-07-01T15:05:57;21.90;38.10
326;DHT22;150;52.352;14.058;2022-07-01T15:08:24;22.00;38.20
326;DHT22;150;52.352;14.058;2022-07-01T15:10:50;21.90;38.60
326;DHT22;150;52.352;14.058;2022-07-01T15:13:17;21.90;39.00
326;DHT22;150;52.352;14.058;2022-07-01T15:15:44;21.80;38.40
326;DHT22;150;52.352;14.058;2022-07-01T15:18:12;21.70;38.80
326;DHT22;150;52.352;14.058;2022-07-01T15:20:39;21.50;38.90
326;DHT22;150;52.352;14.058;2022-07-01T15:23:05;21.40;39.60
326;DHT22;150;52.352;14.058;2022-07-01T15:25:33;21.40;39.60
326;DHT22;150;52.352;14.058;2022-07-01T15:28:00;21.30;39.90
326;DHT22;150;52.352;14.058;2022-07-01T15:30:27;21.30;40.30
326;DHT22;150;52.352;14.058;2022-07-01T15:32:54;21.20;40.60
326;DHT22;150;52.352;14.058;2022-07-01T15:35:22;21.30;40.10
326;DHT22;150;52.352;14.058;2022-07-01T15:37:49;21.30;40.30
326;DHT22;150;52.352;14.058;2022-07-01T15:40:16;21.40;40.20
326;DHT22;150;52.352;14.058;2022-07-01T15:42:42;21.30;40.20
326;DHT22;150;52.352;14.058;2022-07-01T15:45:10;21.40;40.40
326;DHT22;150;52.352;14.058;2022-07-01T15:47:36;21.40;39.80
326;DHT22;150;52.352;14.058;2022-07-01T15:50:22;21.40;40.00
326;DHT22;150;52.352;14.058;2022-07-01T15:52:49;21.50;40.20
326;DHT22;150;52.352;14.058;2022-07-01T15:55:16;21.50;40.10
326;DHT22;150;52.352;14.058;2022-07-01T15:57:43;21.60;39.00
326;DHT22;150;52.352;14.058;2022-07-01T16:00:10;21.60;38.10
326;DHT22;150;52.352;14.058;2022-07-01T16:02:38;21.60;38.50
326;DHT22;150;52.352;14.058;2022-07-01T16:05:06;21.40;38.80
326;DHT22;150;52.352;14.058;2022-07-01T16:07:36;21.40;38.80
326;DHT22;150;52.352;14.058;2022-07-01T16:10:04;21.30;39.00
326;DHT22;150;52.352;14.058;2022-07-01T16:12:32;21.20;39.00
326;DHT22;150;52.352;14.058;2022-07-01T16:15:00;21.10;39.70
326;DHT22;150;52.352;14.058;2022-07-01T16:17:28;21.10;39.80
326;DHT22;150;52.352;14.058;2022-07-01T16:19:56;21.00;40.20
326;DHT22;150;52.352;14.058;2022-07-01T16:22:25;21.00;40.60
326;DHT22;150;52.352;14.058;2022-07-01T16:24:54;21.10;40.20